sensor_id;sensor_type;location;lat;lon;timestamp;P1;durP1;ratioP1;P2;durP2;ratioP2
44516;SDS011;30223;17.182;-96.766;2023-02-05T00:01:26;9.32;;;2.90;;
44516;SDS011;30223;17.182;-96.766;2023-02-05T00:03:52;3.42;;;2.05;;
44516;SDS011;30223;17.182;-96.766;2023-02-05T00:06:19;5.43;;;1.77;;
44516;SDS011;30223;17.182;-96.766;2023-02-05T00:08:46;10.50;;;2.17;;
44516;SDS011;30223;17.182;-96.766;2023-02-05T00:11:12;13.48;;;2.90;;
44516;SDS011;30223;17.182;-96.766;2023-02-05T00:13:40;6.38;;;2.58;;
44516;SDS011;30223;17.182;-96.766;2023-02-05T00:16:08;6.47;;;1.93;;
44516;SDS011;30223;17.182;-96.766;2023-02-05T00:18:40;5.05;;;2.55;;
44516;SDS011;30223;17.182;-96.766;2023-02-05T00:21:06;6.00;;;2.53;;
44516;SDS011;30223;17.182;-96.766;2023-02-05T00:23:34;6.05;;;2.15;;
44516;SDS011;30223;17.182;-96.766;2023-02-05T00:26:02;6.72;;;2.30;;
44516;SDS011;30223;17.182;-96.766;2023-02-05T00:28:35;2.93;;;1.77;;
44516;SDS011;30223;17.182;-96.766;2023-02-05T00:31:21;3.70;;;1.70;;
44516;SDS011;30223;17.182;-96.766;2023-02-05T00:33:48;3.53;;;1.98;;
44516;SDS011;30223;17.182;-96.766;2023-02-05T00:36:16;4.05;;;2.38;;
44516;SDS011;30223;17.182;-96.766;2023-02-05T00:38:44;6.10;;;2.30;;
44516;SDS011;30223;17.182;-96.766;2023-02-05T00:41:12;5.43;;;2.03;;
44516;SDS011;30223;17.182;-96.766;2023-02-05T00:43:40;2.97;;;2.10;;
44516;SDS011;30223;17.182;-96.766;2023-02-05T00:46:08;4.25;;;1.90;;
44516;SDS011;30223;17.182;-96.766;2023-02-05T00:48:36;2.38;;;1.52;;
44516;SDS011;30223;17.182;-96.766;2023-02-05T00:51:03;3.25;;;2.00;;
44516;SDS011;30223;17.182;-96.766;2023-02-05T00:53:30;2.80;;;1.90;;
44516;SDS011;30223;17.182;-96.766;2023-02-05T00:55:57;4.15;;;1.70;;
44516;SDS011;30223;17.182;-96.766;2023-02-05T00:58:29;2.65;;;2.03;;
44516;SDS011;30223;17.182;-96.766;2023-02-05T01:00:58;6.65;;;3.05;;
44516;SDS011;30223;17.182;-96.766;2023-02-05T01:03:28;9.13;;;2.83;;
44516;SDS011;30223;17.182;-96.766;2023-02-05T01:05:57;5.28;;;2.65;;
44516;SDS011;30223;17.182;-96.766;2023-02-05T01:08:28;10.23;;;2.97;;
44516;SDS011;30223;17.182;-96.766;2023-02-05T01:10:57;5.22;;;3.10;;
44516;SDS011;30223;17.182;-96.766;2023-02-05T01:13:24;6.28;;;2.88;;
44516;SDS011;30223;17.182;-96.766;2023-02-05T01:15:51;4.97;;;2.83;;
44516;SDS011;30223;17.182;-96.766;2023-02-05T01:18:18;9.63;;;4.65;;
44516;SDS011;30223;17.182;-96.766;2023-02-05T01:20:46;8.05;;;3.25;;
44516;SDS011;30223;17.182;-96.766;2023-02-05T01:23:13;3.50;;;2.45;;
44516;SDS011;30223;17.182;-96.766;2023-02-05T01:25:39;4.68;;;3.00;;
44516;SDS011;30223;17.182;-96.766;2023-02-05T01:28:06;7.50;;;4.93;;
44516;SDS011;30223;17.182;-96.766;2023-02-05T01:30:33;5.25;;;2.92;;
44516;SDS011;30223;17.182;-96.766;2023-02-05T01:33:00;6.85;;;3.15;;
44516;SDS011;30223;17.182;-96.766;2023-02-05T01:35:28;5.45;;;2.47;;
44516;SDS011;30223;17.182;-96.766;2023-02-05T01:37:55;6.03;;;3.25;;
44516;SDS011;30223;17.182;-96.766;2023-02-05T01:40:22;6.15;;;2.72;;
44516;SDS011;30223;17.182;-96.766;2023-02-05T01:42:48;10.20;;;3.63;;
44516;SDS011;30223;17.182;-96.766;2023-02-05T01:47:48;7.40;;;3.47;;
44516;SDS011;30223;17.182;-96.766;2023-02-05T01:50:20;4.60;;;3.35;;
44516;SDS011;30223;17.182;-96.766;2023-02-05T01:52:54;7.45;;;3.72;;
44516;SDS011;30223;17.182;-96.766;2023-02-05T01:57:49;8.98;;;3.70;;
44516;SDS011;30223;17.182;-96.766;2023-02-05T02:00:18;6.70;;;3.20;;
44516;SDS011;30223;17.182;-96.766;2023-02-05T02:02:45;6.18;;;3.28;;
44516;SDS011;30223;17.182;-96.766;2023-02-05T02:05:14;4.38;;;3.72;;
44516;SDS011;30223;17.182;-96.766;2023-02-05T02:07:42;8.10;;;3.33;;
44516;SDS011;30223;17.182;-96.766;2023-02-05T02:10:10;5.78;;;3.60;;
44516;SDS011;30223;17.182;-96.766;2023-02-05T02:12:40;7.88;;;3.42;;
44516;SDS011;30223;17.182;-96.766;2023-02-05T02:15:09;6.17;;;3.10;;
44516;SDS011;30223;17.182;-96.766;2023-02-05T02:17:42;9.93;;;3.85;;
44516;SDS011;30223;17.182;-96.766;2023-02-05T02:20:32;8.10;;;3.35;;
44516;SDS011;30223;17.182;-96.766;2023-02-05T02:23:17;4.15;;;3.75;;
44516;SDS011;30223;17.182;-96.766;2023-02-05T02:28:47;11.25;;;4.50;;
44516;SDS011;30223;17.182;-96.766;2023-02-05T02:31:39;5.30;;;3.50;;
44516;SDS011;30223;17.182;-96.766;2023-02-05T02:34:14;7.45;;;4.47;;
44516;SDS011;30223;17.182;-96.766;2023-02-05T02:36:54;5.78;;;3.10;;
44516;SDS011;30223;17.182;-96.766;2023-02-05T02:39:48;9.45;;;5.35;;
44516;SDS011;30223;17.182;-96.766;2023-02-05T02:43:02;9.45;;;4.55;;
44516;SDS011;30223;17.182;-96.766;2023-02-05T02:45:37;10.70;;;3.70;;
44516;SDS011;30223;17.182;-96.766;2023-02-05T02:48:10;8.00;;;4.10;;
44516;SDS011;30223;17.182;-96.766;2023-02-05T02:50:40;7.22;;;3.38;;
44516;SDS011;30223;17.182;-96.766;2023-02-05T02:53:14;7.13;;;4.13;;
44516;SDS011;30223;17.182;-96.766;2023-02-05T02:55:44;11.98;;;5.38;;
44516;SDS011;30223;17.182;-96.766;2023-02-05T02:58:19;9.52;;;4.05;;
44516;SDS011;30223;17.182;-96.766;2023-02-05T03:00:52;11.35;;;3.67;;
44516;SDS011;30223;17.182;-96.766;2023-02-05T03:03:20;10.10;;;4.28;;
44516;SDS011;30223;17.182;-96.766;2023-02-05T03:11:12;5.75;;;3.85;;
44516;SDS011;30223;17.182;-96.766;2023-02-05T03:13:41;10.80;;;4.88;;
44516;SDS011;30223;17.182;-96.766;2023-02-05T03:16:09;11.95;;;4.80;;
44516;SDS011;30223;17.182;-96.766;2023-02-05T03:18:36;7.25;;;3.80;;
44516;SDS011;30223;17.182;-96.766;2023-02-05T03:21:04;13.95;;;4.43;;
44516;SDS011;30223;17.182;-96.766;2023-02-05T03:23:45;7.72;;;4.07;;
44516;SDS011;30223;17.182;-96.766;2023-02-05T03:26:27;7.78;;;3.67;;
44516;SDS011;30223;17.182;-96.766;2023-02-05T03:28:57;8.85;;;3.55;;
44516;SDS011;30223;17.182;-96.766;2023-02-05T03:31:32;15.38;;;5.00;;
44516;SDS011;30223;17.182;-96.766;2023-02-05T03:34:21;6.70;;;3.75;;
44516;SDS011;30223;17.182;-96.766;2023-02-05T03:45:38;6.82;;;3.47;;
44516;SDS011;30223;17.182;-96.766;2023-02-05T03:51:39;7.10;;;4.20;;
44516;SDS011;30223;17.182;-96.766;2023-02-05T03:57:03;4.95;;;3.35;;
44516;SDS011;30223;17.182;-96.766;2023-02-05T03:59:32;9.70;;;3.53;;
44516;SDS011;30223;17.182;-96.766;2023-02-05T04:02:00;7.65;;;4.05;;
44516;SDS011;30223;17.182;-96.766;2023-02-05T04:04:29;5.13;;;3.30;;
44516;SDS011;30223;17.182;-96.766;2023-02-05T04:06:56;8.75;;;2.95;;
44516;SDS011;30223;17.182;-96.766;2023-02-05T04:09:22;11.57;;;3.75;;
44516;SDS011;30223;17.182;-96.766;2023-02-05T04:11:49;6.10;;;4.40;;
44516;SDS011;30223;17.182;-96.766;2023-02-05T04:14:16;6.18;;;3.38;;
44516;SDS011;30223;17.182;-96.766;2023-02-05T04:16:42;7.70;;;2.83;;
44516;SDS011;30223;17.182;-96.766;2023-02-05T04:19:09;7.45;;;3.85;;
44516;SDS011;30223;17.182;-96.766;2023-02-05T04:21:36;8.52;;;4.00;;
44516;SDS011;30223;17.182;-96.766;2023-02-05T04:24:03;10.45;;;4.13;;
44516;SDS011;30223;17.182;-96.766;2023-02-05T04:26:30;11.48;;;3.70;;
44516;SDS011;30223;17.182;-96.766;2023-02-05T04:28:57;11.02;;;4.82;;
44516;SDS011;30223;17.182;-96.766;2023-02-05T04:31:23;6.72;;;3.38;;
44516;SDS011;30223;17.182;-96.766;2023-02-05T04:33:50;11.02;;;3.85;;
44516;SDS011;30223;17.182;-96.766;2023-02-05T04:36:17;8.23;;;4.13;;
44516;SDS011;30223;17.182;-96.766;2023-02-05T04:38:43;7.15;;;3.28;;
44516;SDS011;30223;17.182;-96.766;2023-02-05T04:41:10;9.52;;;4.07;;
44516;SDS011;30223;17.182;-96.766;2023-02-05T04:43:37;12.02;;;4.95;;
44516;SDS011;30223;17.182;-96.766;2023-02-05T04:46:07;7.63;;;3.75;;
44516;SDS011;30223;17.182;-96.766;2023-02-05T04:48:35;8.23;;;3.92;;
44516;SDS011;30223;17.182;-96.766;2023-02-05T04:51:09;7.38;;;3.53;;
44516;SDS011;30223;17.182;-96.766;2023-02-05T04:53:38;9.15;;;3.50;;
44516;SDS011;30223;17.182;-96.766;2023-02-05T04:56:06;11.10;;;4.18;;
44516;SDS011;30223;17.182;-96.766;2023-02-05T04:58:37;9.85;;;3.55;;
44516;SDS011;30223;17.182;-96.766;2023-02-05T05:01:04;10.32;;;4.20;;
44516;SDS011;30223;17.182;-96.766;2023-02-05T05:03:40;9.02;;;5.25;;
44516;SDS011;30223;17.182;-96.766;2023-02-05T05:06:07;8.90;;;4.00;;
44516;SDS011;30223;17.182;-96.766;2023-02-05T05:08:34;6.68;;;4.47;;
44516;SDS011;30223;17.182;-96.766;2023-02-05T05:11:10;16.90;;;5.40;;
44516;SDS011;30223;17.182;-96.766;2023-02-05T05:13:39;8.75;;;4.15;;
44516;SDS011;30223;17.182;-96.766;2023-02-05T05:16:06;8.68;;;3.72;;
44516;SDS011;30223;17.182;-96.766;2023-02-05T05:18:35;6.43;;;3.93;;
44516;SDS011;30223;17.182;-96.766;2023-02-05T05:21:02;9.43;;;3.28;;
44516;SDS011;30223;17.182;-96.766;2023-02-05T05:23:30;7.63;;;4.35;;
44516;SDS011;30223;17.182;-96.766;2023-02-05T05:25:57;11.90;;;4.82;;
44516;SDS011;30223;17.182;-96.766;2023-02-05T05:28:24;7.72;;;3.88;;
44516;SDS011;30223;17.182;-96.766;2023-02-05T05:30:50;5.95;;;3.63;;
44516;SDS011;30223;17.182;-96.766;2023-02-05T05:33:17;10.00;;;4.03;;
44516;SDS011;30223;17.182;-96.766;2023-02-05T05:35:44;5.15;;;3.38;;
44516;SDS011;30223;17.182;-96.766;2023-02-05T05:38:11;10.40;;;4.22;;
44516;SDS011;30223;17.182;-96.766;2023-02-05T05:40:38;6.05;;;3.13;;
44516;SDS011;30223;17.182;-96.766;2023-02-05T05:43:22;7.22;;;3.92;;
44516;SDS011;30223;17.182;-96.766;2023-02-05T05:46:07;7.13;;;4.18;;
44516;SDS011;30223;17.182;-96.766;2023-02-05T05:48:34;6.85;;;3.03;;
44516;SDS011;30223;17.182;-96.766;2023-02-05T05:51:01;4.90;;;2.83;;
44516;SDS011;30223;17.182;-96.766;2023-02-05T05:53:27;5.65;;;3.17;;
44516;SDS011;30223;17.182;-96.766;2023-02-05T05:55:54;5.47;;;3.05;;
44516;SDS011;30223;17.182;-96.766;2023-02-05T05:58:21;6.38;;;3.22;;
44516;SDS011;30223;17.182;-96.766;2023-02-05T06:00:48;8.20;;;4.07;;
44516;SDS011;30223;17.182;-96.766;2023-02-05T06:03:15;5.35;;;2.83;;
44516;SDS011;30223;17.182;-96.766;2023-02-05T06:05:41;7.43;;;3.60;;
44516;SDS011;30223;17.182;-96.766;2023-02-05T06:08:08;12.15;;;3.80;;
44516;SDS011;30223;17.182;-96.766;2023-02-05T06:10:35;7.70;;;3.58;;
44516;SDS011;30223;17.182;-96.766;2023-02-05T06:13:01;5.88;;;3.10;;
44516;SDS011;30223;17.182;-96.766;2023-02-05T06:15:28;5.88;;;3.30;;
44516;SDS011;30223;17.182;-96.766;2023-02-05T06:17:55;5.70;;;3.15;;
44516;SDS011;30223;17.182;-96.766;2023-02-05T06:20:22;4.30;;;3.15;;
44516;SDS011;30223;17.182;-96.766;2023-02-05T06:22:49;6.95;;;3.33;;
44516;SDS011;30223;17.182;-96.766;2023-02-05T06:25:15;3.90;;;3.13;;
44516;SDS011;30223;17.182;-96.766;2023-02-05T06:27:42;8.35;;;2.88;;
44516;SDS011;30223;17.182;-96.766;2023-02-05T06:30:09;7.80;;;3.03;;
44516;SDS011;30223;17.182;-96.766;2023-02-05T06:32:36;8.43;;;3.13;;
44516;SDS011;30223;17.182;-96.766;2023-02-05T06:35:03;5.18;;;2.70;;
44516;SDS011;30223;17.182;-96.766;2023-02-05T06:37:30;3.97;;;2.70;;
44516;SDS011;30223;17.182;-96.766;2023-02-05T06:39:57;6.85;;;3.20;;
44516;SDS011;30223;17.182;-96.766;2023-02-05T06:42:23;7.50;;;3.50;;
44516;SDS011;30223;17.182;-96.766;2023-02-05T06:44:50;6.22;;;2.92;;
44516;SDS011;30223;17.182;-96.766;2023-02-05T06:47:18;6.20;;;2.55;;
44516;SDS011;30223;17.182;-96.766;2023-02-05T06:49:44;6.63;;;3.55;;
44516;SDS011;30223;17.182;-96.766;2023-02-05T06:52:11;6.15;;;3.25;;
44516;SDS011;30223;17.182;-96.766;2023-02-05T06:54:37;4.75;;;3.08;;
44516;SDS011;30223;17.182;-96.766;2023-02-05T06:57:04;5.03;;;2.75;;
44516;SDS011;30223;17.182;-96.766;2023-02-05T06:59:31;5.15;;;2.47;;
44516;SDS011;30223;17.182;-96.766;2023-02-05T07:01:58;5.38;;;2.22;;
44516;SDS011;30223;17.182;-96.766;2023-02-05T07:04:24;4.45;;;2.80;;
44516;SDS011;30223;17.182;-96.766;2023-02-05T07:06:53;4.45;;;2.38;;
44516;SDS011;30223;17.182;-96.766;2023-02-05T07:09:19;5.38;;;2.75;;
44516;SDS011;30223;17.182;-96.766;2023-02-05T07:11:46;4.97;;;2.45;;
44516;SDS011;30223;17.182;-96.766;2023-02-05T07:14:13;4.68;;;2.47;;
44516;SDS011;30223;17.182;-96.766;2023-02-05T07:16:40;5.95;;;2.70;;
44516;SDS011;30223;17.182;-96.766;2023-02-05T07:19:06;5.43;;;2.58;;
44516;SDS011;30223;17.182;-96.766;2023-02-05T07:21:33;4.65;;;3.20;;
44516;SDS011;30223;17.182;-96.766;2023-02-05T07:24:00;9.55;;;3.53;;
44516;SDS011;30223;17.182;-96.766;2023-02-05T07:26:27;4.88;;;2.38;;
44516;SDS011;30223;17.182;-96.766;2023-02-05T07:28:54;3.55;;;2.70;;
44516;SDS011;30223;17.182;-96.766;2023-02-05T07:31:21;2.92;;;1.77;;
44516;SDS011;30223;17.182;-96.766;2023-02-05T07:33:47;2.97;;;2.42;;
44516;SDS011;30223;17.182;-96.766;2023-02-05T07:36:15;3.55;;;2.45;;
44516;SDS011;30223;17.182;-96.766;2023-02-05T07:38:42;3.47;;;2.33;;
44516;SDS011;30223;17.182;-96.766;2023-02-05T07:41:11;7.63;;;2.67;;
44516;SDS011;30223;17.182;-96.766;2023-02-05T07:43:39;4.82;;;2.58;;
44516;SDS011;30223;17.182;-96.766;2023-02-05T07:46:08;3.50;;;2.72;;
44516;SDS011;30223;17.182;-96.766;2023-02-05T07:48:38;3.17;;;2.60;;
44516;SDS011;30223;17.182;-96.766;2023-02-05T07:51:05;3.30;;;2.22;;
44516;SDS011;30223;17.182;-96.766;2023-02-05T07:53:32;5.75;;;3.25;;
44516;SDS011;30223;17.182;-96.766;2023-02-05T07:56:03;3.97;;;2.63;;
44516;SDS011;30223;17.182;-96.766;2023-02-05T07:58:30;3.33;;;2.80;;
44516;SDS011;30223;17.182;-96.766;2023-02-05T08:01:03;8.48;;;2.63;;
44516;SDS011;30223;17.182;-96.766;2023-02-05T08:03:30;3.33;;;2.10;;
44516;SDS011;30223;17.182;-96.766;2023-02-05T08:05:57;4.72;;;2.28;;
44516;SDS011;30223;17.182;-96.766;2023-02-05T08:08:23;2.55;;;2.30;;
44516;SDS011;30223;17.182;-96.766;2023-02-05T08:11:00;2.45;;;2.22;;
44516;SDS011;30223;17.182;-96.766;2023-02-05T08:13:29;2.30;;;2.10;;
44516;SDS011;30223;17.182;-96.766;2023-02-05T08:15:56;3.33;;;2.15;;
44516;SDS011;30223;17.182;-96.766;2023-02-05T08:18:23;4.88;;;2.25;;
44516;SDS011;30223;17.182;-96.766;2023-02-05T08:20:53;2.13;;;1.92;;
44516;SDS011;30223;17.182;-96.766;2023-02-05T08:23:19;3.55;;;2.55;;
44516;SDS011;30223;17.182;-96.766;2023-02-05T08:25:46;6.80;;;3.05;;
44516;SDS011;30223;17.182;-96.766;2023-02-05T08:28:17;4.80;;;3.05;;
44516;SDS011;30223;17.182;-96.766;2023-02-05T08:30:44;5.03;;;2.75;;
44516;SDS011;30223;17.182;-96.766;2023-02-05T08:33:10;3.33;;;1.88;;
44516;SDS011;30223;17.182;-96.766;2023-02-05T08:35:37;3.80;;;2.38;;
44516;SDS011;30223;17.182;-96.766;2023-02-05T08:38:04;2.95;;;1.80;;
44516;SDS011;30223;17.182;-96.766;2023-02-05T08:40:30;3.75;;;1.88;;
44516;SDS011;30223;17.182;-96.766;2023-02-05T08:42:57;3.20;;;1.80;;
44516;SDS011;30223;17.182;-96.766;2023-02-05T08:45:26;2.80;;;1.92;;
44516;SDS011;30223;17.182;-96.766;2023-02-05T08:47:53;3.67;;;2.22;;
44516;SDS011;30223;17.182;-96.766;2023-02-05T08:50:20;4.47;;;2.10;;
44516;SDS011;30223;17.182;-96.766;2023-02-05T08:52:47;2.67;;;2.47;;
44516;SDS011;30223;17.182;-96.766;2023-02-05T08:55:14;1.70;;;1.60;;
44516;SDS011;30223;17.182;-96.766;2023-02-05T08:57:42;4.80;;;2.00;;
44516;SDS011;30223;17.182;-96.766;2023-02-05T09:00:09;3.67;;;2.38;;
44516;SDS011;30223;17.182;-96.766;2023-02-05T09:02:37;2.72;;;2.05;;
44516;SDS011;30223;17.182;-96.766;2023-02-05T09:05:05;4.32;;;2.38;;
44516;SDS011;30223;17.182;-96.766;2023-02-05T09:07:32;3.97;;;2.20;;
44516;SDS011;30223;17.182;-96.766;2023-02-05T09:09:58;3.22;;;1.85;;
44516;SDS011;30223;17.182;-96.766;2023-02-05T09:12:25;4.05;;;2.47;;
44516;SDS011;30223;17.182;-96.766;2023-02-05T09:14:52;3.30;;;1.95;;
44516;SDS011;30223;17.182;-96.766;2023-02-05T09:17:18;2.35;;;2.00;;
44516;SDS011;30223;17.182;-96.766;2023-02-05T09:19:45;4.53;;;1.85;;
44516;SDS011;30223;17.182;-96.766;2023-02-05T09:22:12;2.42;;;1.95;;
44516;SDS011;30223;17.182;-96.766;2023-02-05T09:24:38;3.85;;;2.03;;
44516;SDS011;30223;17.182;-96.766;2023-02-05T09:27:05;3.47;;;1.83;;
44516;SDS011;30223;17.182;-96.766;2023-02-05T09:29:32;2.63;;;1.90;;
44516;SDS011;30223;17.182;-96.766;2023-02-05T09:31:58;4.90;;;2.00;;
44516;SDS011;30223;17.182;-96.766;2023-02-05T09:34:25;4.22;;;2.35;;
44516;SDS011;30223;17.182;-96.766;2023-02-05T09:36:52;3.22;;;1.95;;
44516;SDS011;30223;17.182;-96.766;2023-02-05T09:39:19;4.55;;;2.00;;
44516;SDS011;30223;17.182;-96.766;2023-02-05T09:47:28;3.08;;;2.08;;
44516;SDS011;30223;17.182;-96.766;2023-02-05T09:50:20;2.58;;;2.17;;
44516;SDS011;30223;17.182;-96.766;2023-02-05T09:53:12;2.35;;;1.58;;
44516;SDS011;30223;17.182;-96.766;2023-02-05T09:58:12;3.30;;;1.73;;
44516;SDS011;30223;17.182;-96.766;2023-02-05T10:00:47;2.47;;;1.60;;
44516;SDS011;30223;17.182;-96.766;2023-02-05T10:11:06;2.88;;;1.50;;
44516;SDS011;30223;17.182;-96.766;2023-02-05T10:13:43;3.13;;;1.60;;
44516;SDS011;30223;17.182;-96.766;2023-02-05T10:16:32;1.58;;;1.35;;
44516;SDS011;30223;17.182;-96.766;2023-02-05T10:27:21;4.40;;;2.75;;
44516;SDS011;30223;17.182;-96.766;2023-02-05T10:35:23;4.30;;;1.55;;
44516;SDS011;30223;17.182;-96.766;2023-02-05T10:37:54;3.92;;;1.80;;
44516;SDS011;30223;17.182;-96.766;2023-02-05T10:40:31;1.42;;;1.33;;
44516;SDS011;30223;17.182;-96.766;2023-02-05T10:43:16;2.58;;;1.52;;
44516;SDS011;30223;17.182;-96.766;2023-02-05T10:45:47;1.27;;;1.15;;
44516;SDS011;30223;17.182;-96.766;2023-02-05T10:51:11;1.60;;;1.50;;
44516;SDS011;30223;17.182;-96.766;2023-02-05T10:53:42;1.92;;;1.60;;
44516;SDS011;30223;17.182;-96.766;2023-02-05T10:56:13;2.50;;;1.40;;
44516;SDS011;30223;17.182;-96.766;2023-02-05T10:58:49;2.28;;;1.58;;
44516;SDS011;30223;17.182;-96.766;2023-02-05T11:01:22;1.27;;;1.00;;
44516;SDS011;30223;17.182;-96.766;2023-02-05T11:04:02;2.45;;;1.63;;
44516;SDS011;30223;17.182;-96.766;2023-02-05T11:06:37;2.08;;;1.50;;
44516;SDS011;30223;17.182;-96.766;2023-02-05T11:09:33;2.28;;;1.80;;
44516;SDS011;30223;17.182;-96.766;2023-02-05T11:12:01;3.33;;;1.63;;
44516;SDS011;30223;17.182;-96.766;2023-02-05T11:14:40;1.63;;;1.20;;
44516;SDS011;30223;17.182;-96.766;2023-02-05T11:19:39;3.22;;;1.92;;
44516;SDS011;30223;17.182;-96.766;2023-02-05T11:22:08;2.28;;;1.27;;
44516;SDS011;30223;17.182;-96.766;2023-02-05T11:24:51;2.00;;;1.60;;
44516;SDS011;30223;17.182;-96.766;2023-02-05T11:27:39;2.67;;;1.25;;
44516;SDS011;30223;17.182;-96.766;2023-02-05T11:30:17;2.28;;;1.52;;
44516;SDS011;30223;17.182;-96.766;2023-02-05T11:33:44;2.08;;;1.30;;
44516;SDS011;30223;17.182;-96.766;2023-02-05T11:35:53;1.92;;;1.15;;
44516;SDS011;30223;17.182;-96.766;2023-02-05T11:43:54;2.65;;;2.33;;
44516;SDS011;30223;17.182;-96.766;2023-02-05T11:48:57;2.25;;;1.73;;
44516;SDS011;30223;17.182;-96.766;2023-02-05T11:56:42;1.67;;;1.15;;
44516;SDS011;30223;17.182;-96.766;2023-02-05T11:59:23;2.13;;;1.27;;
44516;SDS011;30223;17.182;-96.766;2023-02-05T12:01:50;3.78;;;1.60;;
44516;SDS011;30223;17.182;-96.766;2023-02-05T12:04:17;2.25;;;1.10;;
44516;SDS011;30223;17.182;-96.766;2023-02-05T12:06:52;1.75;;;1.48;;
44516;SDS011;30223;17.182;-96.766;2023-02-05T12:09:24;1.48;;;1.38;;
44516;SDS011;30223;17.182;-96.766;2023-02-05T12:14:41;1.55;;;1.45;;
44516;SDS011;30223;17.182;-96.766;2023-02-05T12:17:39;1.70;;;1.15;;
44516;SDS011;30223;17.182;-96.766;2023-02-05T12:20:32;2.67;;;1.50;;
44516;SDS011;30223;17.182;-96.766;2023-02-05T12:26:24;2.78;;;1.80;;
44516;SDS011;30223;17.182;-96.766;2023-02-05T12:32:05;4.22;;;1.17;;
44516;SDS011;30223;17.182;-96.766;2023-02-05T12:37:40;3.00;;;2.67;;
44516;SDS011;30223;17.182;-96.766;2023-02-05T12:40:57;1.48;;;1.33;;
44516;SDS011;30223;17.182;-96.766;2023-02-05T12:43:36;1.52;;;1.02;;
44516;SDS011;30223;17.182;-96.766;2023-02-05T12:46:26;1.38;;;1.27;;
44516;SDS011;30223;17.182;-96.766;2023-02-05T12:49:09;1.65;;;1.33;;
44516;SDS011;30223;17.182;-96.766;2023-02-05T12:54:42;2.13;;;1.40;;
44516;SDS011;30223;17.182;-96.766;2023-02-05T12:57:21;1.50;;;1.40;;
44516;SDS011;30223;17.182;-96.766;2023-02-05T13:00:04;2.67;;;0.93;;
44516;SDS011;30223;17.182;-96.766;2023-02-05T13:02:44;4.03;;;1.10;;
44516;SDS011;30223;17.182;-96.766;2023-02-05T13:05:15;1.38;;;0.98;;
44516;SDS011;30223;17.182;-96.766;2023-02-05T13:07:58;2.78;;;1.50;;
44516;SDS011;30223;17.182;-96.766;2023-02-05T13:13:25;3.63;;;1.45;;
44516;SDS011;30223;17.182;-96.766;2023-02-05T13:16:08;1.70;;;1.15;;
44516;SDS011;30223;17.182;-96.766;2023-02-05T13:19:02;2.05;;;1.30;;
44516;SDS011;30223;17.182;-96.766;2023-02-05T13:21:32;3.03;;;1.20;;
44516;SDS011;30223;17.182;-96.766;2023-02-05T13:30:01;2.25;;;1.58;;
44516;SDS011;30223;17.182;-96.766;2023-02-05T13:32:29;2.15;;;1.17;;
44516;SDS011;30223;17.182;-96.766;2023-02-05T13:34:58;2.97;;;1.50;;
44516;SDS011;30223;17.182;-96.766;2023-02-05T13:37:28;2.05;;;1.27;;
44516;SDS011;30223;17.182;-96.766;2023-02-05T13:45:50;2.33;;;1.40;;
44516;SDS011;30223;17.182;-96.766;2023-02-05T13:51:20;2.42;;;1.52;;
44516;SDS011;30223;17.182;-96.766;2023-02-05T13:59:53;3.35;;;2.38;;
44516;SDS011;30223;17.182;-96.766;2023-02-05T14:05:26;2.80;;;1.77;;
44516;SDS011;30223;17.182;-96.766;2023-02-05T14:07:55;2.72;;;1.58;;
44516;SDS011;30223;17.182;-96.766;2023-02-05T14:13:17;1.88;;;1.17;;
44516;SDS011;30223;17.182;-96.766;2023-02-05T14:19:02;2.00;;;1.38;;
44516;SDS011;30223;17.182;-96.766;2023-02-05T14:22:04;3.38;;;1.83;;
44516;SDS011;30223;17.182;-96.766;2023-02-05T14:24:43;2.15;;;1.92;;
44516;SDS011;30223;17.182;-96.766;2023-02-05T14:27:19;1.52;;;1.30;;
44516;SDS011;30223;17.182;-96.766;2023-02-05T14:29:56;2.35;;;1.50;;
44516;SDS011;30223;17.182;-96.766;2023-02-05T14:35:29;4.47;;;1.67;;
44516;SDS011;30223;17.182;-96.766;2023-02-05T14:38:00;3.30;;;1.42;;
44516;SDS011;30223;17.182;-96.766;2023-02-05T14:40:39;2.08;;;1.25;;
44516;SDS011;30223;17.182;-96.766;2023-02-05T14:45:54;3.00;;;1.83;;
44516;SDS011;30223;17.182;-96.766;2023-02-05T14:48:28;3.97;;;1.73;;
44516;SDS011;30223;17.182;-96.766;2023-02-05T14:53:41;2.75;;;1.45;;
44516;SDS011;30223;17.182;-96.766;2023-02-05T14:56:38;3.72;;;1.98;;
44516;SDS011;30223;17.182;-96.766;2023-02-05T15:13:31;2.45;;;1.92;;
44516;SDS011;30223;17.182;-96.766;2023-02-05T15:18:41;2.42;;;1.73;;
44516;SDS011;30223;17.182;-96.766;2023-02-05T15:21:12;3.25;;;1.35;;
44516;SDS011;30223;17.182;-96.766;2023-02-05T15:29:22;3.85;;;1.70;;
44516;SDS011;30223;17.182;-96.766;2023-02-05T15:32:02;3.08;;;1.35;;
44516;SDS011;30223;17.182;-96.766;2023-02-05T15:37:01;3.03;;;1.65;;
44516;SDS011;30223;17.182;-96.766;2023-02-05T15:42:22;2.72;;;1.88;;
44516;SDS011;30223;17.182;-96.766;2023-02-05T15:44:55;2.78;;;1.42;;
44516;SDS011;30223;17.182;-96.766;2023-02-05T15:47:23;2.17;;;1.55;;
44516;SDS011;30223;17.182;-96.766;2023-02-05T15:49:53;4.15;;;2.20;;
44516;SDS011;30223;17.182;-96.766;2023-02-05T15:54:52;4.65;;;1.80;;
44516;SDS011;30223;17.182;-96.766;2023-02-05T15:57:24;2.67;;;2.20;;
44516;SDS011;30223;17.182;-96.766;2023-02-05T15:59:57;4.68;;;2.67;;
44516;SDS011;30223;17.182;-96.766;2023-02-05T16:02:29;2.47;;;1.98;;
44516;SDS011;30223;17.182;-96.766;2023-02-05T16:04:59;2.10;;;1.90;;
44516;SDS011;30223;17.182;-96.766;2023-02-05T16:07:40;2.97;;;1.92;;
44516;SDS011;30223;17.182;-96.766;2023-02-05T16:10:15;5.93;;;2.03;;
44516;SDS011;30223;17.182;-96.766;2023-02-05T16:13:04;3.88;;;2.45;;
44516;SDS011;30223;17.182;-96.766;2023-02-05T16:15:39;3.05;;;2.15;;
44516;SDS011;30223;17.182;-96.766;2023-02-05T16:18:08;3.88;;;2.55;;
44516;SDS011;30223;17.182;-96.766;2023-02-05T16:21:00;3.05;;;1.88;;
44516;SDS011;30223;17.182;-96.766;2023-02-05T16:23:45;3.35;;;2.20;;
44516;SDS011;30223;17.182;-96.766;2023-02-05T16:26:25;3.63;;;2.00;;
44516;SDS011;30223;17.182;-96.766;2023-02-05T16:29:02;1.92;;;1.70;;
44516;SDS011;30223;17.182;-96.766;2023-02-05T16:31:30;4.18;;;2.50;;
44516;SDS011;30223;17.182;-96.766;2023-02-05T16:34:01;3.28;;;2.38;;
44516;SDS011;30223;17.182;-96.766;2023-02-05T16:36:33;7.38;;;2.20;;
44516;SDS011;30223;17.182;-96.766;2023-02-05T16:39:06;4.90;;;3.38;;
44516;SDS011;30223;17.182;-96.766;2023-02-05T16:41:45;3.88;;;2.65;;
44516;SDS011;30223;17.182;-96.766;2023-02-05T16:44:47;2.88;;;2.00;;
44516;SDS011;30223;17.182;-96.766;2023-02-05T16:47:17;5.35;;;2.80;;
44516;SDS011;30223;17.182;-96.766;2023-02-05T16:49:45;4.80;;;3.00;;
44516;SDS011;30223;17.182;-96.766;2023-02-05T16:52:25;3.95;;;2.63;;
44516;SDS011;30223;17.182;-96.766;2023-02-05T16:54:55;3.88;;;2.78;;
44516;SDS011;30223;17.182;-96.766;2023-02-05T16:57:31;3.05;;;2.30;;
44516;SDS011;30223;17.182;-96.766;2023-02-05T17:00:06;6.35;;;3.20;;
44516;SDS011;30223;17.182;-96.766;2023-02-05T17:02:51;4.00;;;1.80;;
44516;SDS011;30223;17.182;-96.766;2023-02-05T17:05:28;3.78;;;2.70;;
44516;SDS011;30223;17.182;-96.766;2023-02-05T17:10:49;4.00;;;2.45;;
44516;SDS011;30223;17.182;-96.766;2023-02-05T17:13:39;2.45;;;2.25;;
44516;SDS011;30223;17.182;-96.766;2023-02-05T17:19:00;4.57;;;2.20;;
44516;SDS011;30223;17.182;-96.766;2023-02-05T17:21:31;3.03;;;2.42;;
44516;SDS011;30223;17.182;-96.766;2023-02-05T17:24:00;3.83;;;2.28;;
44516;SDS011;30223;17.182;-96.766;2023-02-05T17:26:30;4.03;;;2.70;;
44516;SDS011;30223;17.182;-96.766;2023-02-05T17:29:00;2.95;;;2.20;;
44516;SDS011;30223;17.182;-96.766;2023-02-05T17:31:30;2.75;;;1.85;;
44516;SDS011;30223;17.182;-96.766;2023-02-05T17:34:01;2.72;;;1.90;;
44516;SDS011;30223;17.182;-96.766;2023-02-05T17:36:28;4.95;;;1.65;;